Time;durP1;ratioP1;P1;durP2;ratioP2;P2;SDS_P1;SDS_P2;PMS_P1;PMS_P2;Temp;Humidity;BMP_temperature;BMP_pressure;BME280_temperature;BME280_humidity;BME280_pressure;Samples;Min_cycle;Max_cycle;Signal;HPM_P1;HPM_P2
2023/08/21 00:02:23;;;;;;;9.05;3.42;;;;;;;;;;5017043;28;20053;-78
2023/08/21 00:04:49;;;;;;;10.02;3.47;;;;;;;;;;5034220;28;20079;-78
2023/08/21 00:07:15;;;;;;;10.75;4.35;;;;;;;;;;5034623;28;20041;-78
2023/08/21 00:09:41;;;;;;;11.30;4.13;;;;;;;;;;5000652;28;20487;-79
2023/08/21 00:12:07;;;;;;;11.73;3.80;;;;;;;;;;5034719;28;20465;-78
2023/08/21 00:14:33;;;;;;;10.27;3.90;;;;;;;;;;5034604;28;20060;-78
2023/08/21 00:16:59;;;;;;;11.48;4.63;;;;;;;;;;5016681;28;20107;-78
2023/08/21 00:19:25;;;;;;;10.85;4.15;;;;;;;;;;5016660;28;20041;-78
2023/08/21 00:21:51;;;;;;;11.75;4.53;;;;;;;;;;5016545;28;20443;-77
2023/08/21 00:24:17;;;;;;;15.80;4.43;;;;;;;;;;5016584;28;20080;-78
2023/08/21 00:26:43;;;;;;;14.02;4.03;;;;;;;;;;5034382;28;20044;-79
2023/08/21 00:29:09;;;;;;;11.52;4.13;;;;;;;;;;5016511;28;20095;-77
2023/08/21 00:31:36;;;;;;;9.60;4.25;;;;;;;;;;5034418;28;20130;-77
2023/08/21 00:34:02;;;;;;;9.50;4.20;;;;;;;;;;5016608;28;20091;-77
2023/08/21 00:36:28;;;;;;;11.23;4.25;;;;;;;;;;5016734;28;20149;-79
2023/08/21 00:38:54;;;;;;;12.88;4.03;;;;;;;;;;4999935;28;20053;-79
2023/08/21 00:41:20;;;;;;;11.25;4.20;;;;;;;;;;5016549;28;20052;-78
2023/08/21 00:43:46;;;;;;;13.95;4.50;;;;;;;;;;5015699;28;20494;-78
2023/08/21 00:46:12;;;;;;;12.95;4.00;;;;;;;;;;5016209;28;20504;-78
2023/08/21 00:48:38;;;;;;;8.85;4.15;;;;;;;;;;4999671;28;20152;-78
2023/08/21 00:51:04;;;;;;;9.73;4.00;;;;;;;;;;5033976;28;20118;-78
2023/08/21 00:53:30;;;;;;;10.20;4.07;;;;;;;;;;5033317;28;20041;-78
2023/08/21 00:55:56;;;;;;;10.88;4.57;;;;;;;;;;5033790;28;20478;-78
2023/08/21 00:58:22;;;;;;;12.38;4.30;;;;;;;;;;4999361;28;20501;-79
2023/08/21 01:00:50;;;;;;;11.13;4.05;;;;;;;;;;5015087;28;20068;-79
2023/08/21 01:03:16;;;;;;;11.32;3.80;;;;;;;;;;5015070;28;20068;-79
2023/08/21 01:05:42;;;;;;;9.50;4.22;;;;;;;;;;4998152;28;20069;-79
2023/08/21 01:08:21;;;;;;;10.82;3.90;;;;;;;;;;5015196;28;20410;-78
2023/08/21 01:10:53;;;;;;;10.25;4.13;;;;;;;;;;5022045;28;20533;-76
2023/08/21 01:13:37;;;;;;;9.80;4.57;;;;;;;;;;5020485;28;20049;-77
2023/08/21 01:16:04;;;;;;;11.18;4.10;;;;;;;;;;4996829;28;20049;-78
2023/08/21 01:18:30;;;;;;;11.18;3.75;;;;;;;;;;5014092;28;20395;-78
2023/08/21 01:20:58;;;;;;;11.90;4.30;;;;;;;;;;4980303;28;20050;-79
2023/08/21 01:23:30;;;;;;;10.63;4.10;;;;;;;;;;4995908;28;20080;-78
2023/08/21 01:25:56;;;;;;;11.65;4.13;;;;;;;;;;5013319;28;20049;-77
2023/08/21 01:28:22;;;;;;;13.32;4.75;;;;;;;;;;4976224;28;20517;-78
2023/08/21 01:30:50;;;;;;;13.35;4.30;;;;;;;;;;5013488;28;20050;-78
2023/08/21 01:33:16;;;;;;;12.95;4.50;;;;;;;;;;5013781;28;20120;-79
2023/08/21 01:35:43;;;;;;;13.50;4.88;;;;;;;;;;5013259;28;20104;-79
2023/08/21 01:38:09;;;;;;;10.75;4.68;;;;;;;;;;4994652;28;20038;-79
2023/08/21 01:40:35;;;;;;;11.73;4.55;;;;;;;;;;5013684;28;20108;-78
2023/08/21 01:43:01;;;;;;;12.82;5.20;;;;;;;;;;4996055;28;20054;-78
2023/08/21 01:45:27;;;;;;;13.10;4.90;;;;;;;;;;5013504;28;20088;-79
2023/08/21 01:47:53;;;;;;;14.70;4.80;;;;;;;;;;4995810;28;20085;-78
2023/08/21 01:50:19;;;;;;;13.77;4.82;;;;;;;;;;4994475;28;20142;-78
2023/08/21 01:52:45;;;;;;;12.50;4.82;;;;;;;;;;5013467;28;20049;-78
2023/08/21 01:55:11;;;;;;;15.63;5.20;;;;;;;;;;5013263;28;20356;-78
2023/08/21 01:57:37;;;;;;;11.18;4.68;;;;;;;;;;4995672;28;20040;-78
2023/08/21 02:00:08;;;;;;;13.10;5.10;;;;;;;;;;5013383;28;20057;-78
2023/08/21 02:02:34;;;;;;;12.80;5.30;;;;;;;;;;5013366;28;20046;-78
2023/08/21 02:05:00;;;;;;;12.40;5.30;;;;;;;;;;5012723;28;20064;-78
2023/08/21 02:07:26;;;;;;;15.02;5.65;;;;;;;;;;4995901;28;20376;-78
2023/08/21 02:09:52;;;;;;;11.65;5.15;;;;;;;;;;5013150;28;20447;-78
2023/08/21 02:12:18;;;;;;;12.63;4.80;;;;;;;;;;5012911;28;20475;-78
2023/08/21 02:14:44;;;;;;;15.90;5.65;;;;;;;;;;4995182;28;20046;-78
2023/08/21 02:17:10;;;;;;;15.70;5.40;;;;;;;;;;4995179;28;20049;-78
2023/08/21 02:19:36;;;;;;;11.98;5.68;;;;;;;;;;4993179;28;20108;-78
2023/08/21 02:22:02;;;;;;;14.48;5.22;;;;;;;;;;4995459;28;20041;-79
2023/08/21 02:24:28;;;;;;;14.60;5.13;;;;;;;;;;5012873;28;20048;-78
2023/08/21 02:26:54;;;;;;;15.38;5.13;;;;;;;;;;4995258;28;20054;-78
2023/08/21 02:29:21;;;;;;;14.70;5.28;;;;;;;;;;4995281;28;20474;-78
2023/08/21 02:31:48;;;;;;;11.85;5.20;;;;;;;;;;4995199;28;20061;-78
2023/08/21 02:34:14;;;;;;;13.20;6.07;;;;;;;;;;5012734;28;20398;-78
2023/08/21 02:36:40;;;;;;;11.43;5.53;;;;;;;;;;5012727;28;20065;-78
2023/08/21 02:39:06;;;;;;;10.63;5.10;;;;;;;;;;5012750;28;20487;-78
2023/08/21 02:41:32;;;;;;;9.57;5.75;;;;;;;;;;4999000;28;20046;-79
2023/08/21 02:43:58;;;;;;;10.15;5.63;;;;;;;;;;4998601;28;20049;-78
2023/08/21 02:46:24;;;;;;;10.52;5.32;;;;;;;;;;5016699;28;20133;-78
2023/08/21 02:48:50;;;;;;;11.18;5.18;;;;;;;;;;4999076;28;20395;-79
2023/08/21 02:51:16;;;;;;;13.55;4.60;;;;;;;;;;5016621;28;20149;-79
2023/08/21 02:53:42;;;;;;;10.85;4.72;;;;;;;;;;4983030;28;20390;-79
2023/08/21 02:56:08;;;;;;;10.85;4.57;;;;;;;;;;5016475;28;20132;-79
2023/08/21 02:58:34;;;;;;;13.55;4.25;;;;;;;;;;5015051;28;20436;-79
2023/08/21 03:01:00;;;;;;;11.90;4.40;;;;;;;;;;4997383;28;20131;-79
2023/08/21 03:03:26;;;;;;;11.07;4.20;;;;;;;;;;4972659;28;20065;-79
2023/08/21 03:05:52;;;;;;;10.90;4.57;;;;;;;;;;4995728;28;20054;-79
2023/08/21 03:08:18;;;;;;;9.55;4.60;;;;;;;;;;4978882;28;20042;-79
2023/08/21 03:10:44;;;;;;;13.82;4.90;;;;;;;;;;5009037;28;20045;-79
2023/08/21 03:13:10;;;;;;;13.85;5.30;;;;;;;;;;5015760;28;20045;-78
2023/08/21 03:15:36;;;;;;;11.60;4.72;;;;;;;;;;5016051;28;20049;-79
2023/08/21 03:18:03;;;;;;;14.13;5.20;;;;;;;;;;5015672;28;20085;-79
2023/08/21 03:20:29;;;;;;;11.60;5.10;;;;;;;;;;5014052;28;20046;-78
2023/08/21 03:22:55;;;;;;;10.65;4.47;;;;;;;;;;5013081;28;20124;-78
2023/08/21 03:25:21;;;;;;;10.98;4.75;;;;;;;;;;4996171;28;20053;-78
2023/08/21 03:27:49;;;;;;;11.07;4.80;;;;;;;;;;4996679;28;20045;-78
2023/08/21 03:30:15;;;;;;;12.18;5.15;;;;;;;;;;4998209;28;20042;-78
2023/08/21 03:32:41;;;;;;;13.23;4.68;;;;;;;;;;4997853;28;20474;-79
2023/08/21 03:35:07;;;;;;;9.80;4.03;;;;;;;;;;4997640;28;20136;-78
2023/08/21 03:37:33;;;;;;;8.95;4.20;;;;;;;;;;5012937;28;20053;-78
2023/08/21 03:39:59;;;;;;;8.43;4.20;;;;;;;;;;4981596;28;20390;-79
2023/08/21 03:42:26;;;;;;;7.95;4.22;;;;;;;;;;4997406;28;20042;-79
2023/08/21 03:44:52;;;;;;;10.52;4.10;;;;;;;;;;5015360;28;20057;-79
2023/08/21 03:47:18;;;;;;;9.68;3.80;;;;;;;;;;5014012;28;20046;-80
2023/08/21 03:49:44;;;;;;;8.88;4.00;;;;;;;;;;5013764;28;20046;-79
2023/08/21 03:52:10;;;;;;;10.48;4.63;;;;;;;;;;4994373;28;20132;-79
2023/08/21 03:54:36;;;;;;;10.15;3.95;;;;;;;;;;5013917;28;20104;-79
2023/08/21 03:57:02;;;;;;;10.57;4.93;;;;;;;;;;4997422;28;20046;-79
2023/08/21 03:59:29;;;;;;;8.98;4.70;;;;;;;;;;5014517;28;20077;-79
2023/08/21 04:01:55;;;;;;;12.88;5.80;;;;;;;;;;4980970;28;20049;-79
2023/08/21 04:04:21;;;;;;;15.30;5.50;;;;;;;;;;5022359;28;20518;-79
2023/08/21 04:06:47;;;;;;;12.18;5.50;;;;;;;;;;5014870;28;20395;-79
2023/08/21 04:09:13;;;;;;;15.15;5.63;;;;;;;;;;4997504;28;20513;-79
2023/08/21 04:11:39;;;;;;;14.02;6.30;;;;;;;;;;5015031;28;20050;-79
2023/08/21 04:14:05;;;;;;;13.43;5.60;;;;;;;;;;5014795;28;20061;-78
2023/08/21 04:16:31;;;;;;;11.80;5.65;;;;;;;;;;5026584;28;20498;-79
2023/08/21 04:18:57;;;;;;;12.55;6.43;;;;;;;;;;5034434;28;20049;-78
2023/08/21 04:21:23;;;;;;;14.07;6.20;;;;;;;;;;5034231;28;20084;-79
2023/08/21 04:23:49;;;;;;;14.52;5.88;;;;;;;;;;5034241;28;20041;-78
2023/08/21 04:26:15;;;;;;;14.10;6.68;;;;;;;;;;5016515;28;20092;-78
2023/08/21 04:28:41;;;;;;;14.05;5.80;;;;;;;;;;5016304;28;20048;-79
2023/08/21 04:31:08;;;;;;;14.02;6.40;;;;;;;;;;5015537;28;20049;-78
2023/08/21 04:33:35;;;;;;;15.93;5.97;;;;;;;;;;5012966;28;20128;-79
2023/08/21 04:36:04;;;;;;;15.18;6.53;;;;;;;;;;5032360;28;20064;-79
2023/08/21 04:38:30;;;;;;;14.93;6.60;;;;;;;;;;5032533;28;20052;-79
2023/08/21 04:40:56;;;;;;;13.02;6.90;;;;;;;;;;4999716;28;20065;-79
2023/08/21 04:43:22;;;;;;;19.20;6.55;;;;;;;;;;5015123;28;20126;-78
2023/08/21 04:45:52;;;;;;;14.75;5.60;;;;;;;;;;5015118;28;20057;-79
2023/08/21 04:48:19;;;;;;;12.23;6.20;;;;;;;;;;5033652;28;20524;-78
2023/08/21 04:50:46;;;;;;;12.85;5.90;;;;;;;;;;5015942;28;20049;-78
2023/08/21 04:53:12;;;;;;;13.38;5.60;;;;;;;;;;5014166;28;20042;-78
2023/08/21 04:55:40;;;;;;;13.52;5.43;;;;;;;;;;5031246;28;20056;-79
2023/08/21 04:58:06;;;;;;;14.00;6.13;;;;;;;;;;5032090;28;20448;-79
2023/08/21 05:00:33;;;;;;;11.13;5.50;;;;;;;;;;5015767;28;20136;-79
2023/08/21 05:02:59;;;;;;;16.25;5.93;;;;;;;;;;5014840;28;20473;-78
2023/08/21 05:05:25;;;;;;;16.10;5.70;;;;;;;;;;5035300;28;20053;-77
2023/08/21 05:07:52;;;;;;;14.18;5.07;;;;;;;;;;5042756;28;20045;-76
2023/08/21 05:10:19;;;;;;;15.85;5.38;;;;;;;;;;5040879;28;20052;-78
2023/08/21 05:12:45;;;;;;;15.35;5.10;;;;;;;;;;5033898;28;20133;-78
2023/08/21 05:15:11;;;;;;;16.45;4.88;;;;;;;;;;5034091;28;20095;-79
2023/08/21 05:17:38;;;;;;;10.10;4.25;;;;;;;;;;5016292;28;20060;-79
2023/08/21 05:20:05;;;;;;;15.68;5.03;;;;;;;;;;4999700;28;20363;-79
2023/08/21 05:22:31;;;;;;;14.27;4.75;;;;;;;;;;5015595;28;20064;-79
2023/08/21 05:24:57;;;;;;;13.18;4.55;;;;;;;;;;5033258;28;20102;-79
2023/08/21 05:27:23;;;;;;;12.98;4.63;;;;;;;;;;5033575;28;20124;-79
2023/08/21 05:29:51;;;;;;;14.63;4.63;;;;;;;;;;4999251;28;20167;-79
2023/08/21 05:32:17;;;;;;;12.80;4.63;;;;;;;;;;5032329;28;20140;-78
2023/08/21 05:34:43;;;;;;;9.38;3.97;;;;;;;;;;5031550;28;20320;-79
2023/08/21 05:37:09;;;;;;;12.15;4.80;;;;;;;;;;5012929;28;20045;-79
2023/08/21 05:39:35;;;;;;;11.63;4.20;;;;;;;;;;5015544;28;20045;-78
2023/08/21 05:42:01;;;;;;;10.63;4.50;;;;;;;;;;5014968;28;20045;-78
2023/08/21 05:44:27;;;;;;;11.85;4.72;;;;;;;;;;5015380;28;20054;-78
2023/08/21 05:46:54;;;;;;;11.85;4.60;;;;;;;;;;5033037;28;20119;-78
2023/08/21 05:49:20;;;;;;;9.73;4.07;;;;;;;;;;5032916;28;20054;-78
2023/08/21 05:51:46;;;;;;;15.10;4.70;;;;;;;;;;5015246;28;20045;-79
2023/08/21 05:54:12;;;;;;;11.15;4.20;;;;;;;;;;5033174;28;20409;-79
2023/08/21 05:56:38;;;;;;;13.60;3.97;;;;;;;;;;5014717;28;20050;-79
2023/08/21 05:59:04;;;;;;;11.95;4.05;;;;;;;;;;5014868;28;20045;-79
2023/08/21 06:01:30;;;;;;;11.73;3.58;;;;;;;;;;4998306;28;20087;-78
2023/08/21 06:03:58;;;;;;;13.10;3.90;;;;;;;;;;5009468;28;20112;-79
2023/08/21 06:06:24;;;;;;;9.63;3.53;;;;;;;;;;4992675;28;20140;-79
2023/08/21 06:08:50;;;;;;;12.40;4.28;;;;;;;;;;5012207;28;20070;-79
2023/08/21 06:11:16;;;;;;;12.20;3.92;;;;;;;;;;4994709;28;20085;-79
2023/08/21 06:13:42;;;;;;;9.25;3.42;;;;;;;;;;5009722;28;20057;-79
2023/08/21 06:16:08;;;;;;;8.93;3.28;;;;;;;;;;4994683;28;20075;-79
2023/08/21 06:18:34;;;;;;;10.35;3.30;;;;;;;;;;4995384;28;20410;-80
2023/08/21 06:21:00;;;;;;;7.10;3.00;;;;;;;;;;5014373;28;20462;-78
2023/08/21 06:23:26;;;;;;;9.05;2.90;;;;;;;;;;5013096;28;20434;-79
2023/08/21 06:25:52;;;;;;;8.95;3.08;;;;;;;;;;5012590;28;20050;-78
2023/08/21 06:28:18;;;;;;;7.35;2.78;;;;;;;;;;5012797;28;20092;-79
2023/08/21 06:30:44;;;;;;;8.02;2.70;;;;;;;;;;4978722;28;20053;-78
2023/08/21 06:33:10;;;;;;;8.43;2.70;;;;;;;;;;5010827;28;20498;-78
2023/08/21 06:35:37;;;;;;;8.27;2.42;;;;;;;;;;4994477;28;20518;-79
2023/08/21 06:38:04;;;;;;;7.65;2.60;;;;;;;;;;5012486;28;20046;-79
2023/08/21 06:40:30;;;;;;;6.75;2.22;;;;;;;;;;5012883;28;20050;-78
2023/08/21 06:42:56;;;;;;;8.75;2.38;;;;;;;;;;5012714;28;20695;-78
2023/08/21 06:45:22;;;;;;;8.13;2.40;;;;;;;;;;5012293;28;20468;-77
2023/08/21 06:47:50;;;;;;;6.88;2.17;;;;;;;;;;5012501;28;20053;-78
2023/08/21 06:50:16;;;;;;;7.63;2.20;;;;;;;;;;5012141;28;20514;-78
2023/08/21 06:52:43;;;;;;;8.13;2.35;;;;;;;;;;5012516;28;20046;-76
2023/08/21 06:55:09;;;;;;;7.60;2.28;;;;;;;;;;4995529;28;20045;-78
2023/08/21 06:57:37;;;;;;;11.43;2.40;;;;;;;;;;4994481;28;20103;-78
2023/08/21 07:00:05;;;;;;;6.20;1.83;;;;;;;;;;5012269;28;20124;-78
2023/08/21 07:02:31;;;;;;;8.27;2.30;;;;;;;;;;5012162;28;20053;-78
2023/08/21 07:04:57;;;;;;;5.82;2.00;;;;;;;;;;5002125;28;20058;-79
2023/08/21 07:07:24;;;;;;;12.30;2.50;;;;;;;;;;5012092;28;20046;-79
2023/08/21 07:09:51;;;;;;;7.25;2.33;;;;;;;;;;5011791;28;20085;-78
2023/08/21 07:12:17;;;;;;;6.53;2.30;;;;;;;;;;5011725;28;20045;-80
2023/08/21 07:14:43;;;;;;;7.18;2.08;;;;;;;;;;5012056;28;20100;-79
2023/08/21 07:17:09;;;;;;;6.00;1.70;;;;;;;;;;4993418;28;20494;-78
2023/08/21 07:19:35;;;;;;;7.30;1.80;;;;;;;;;;4992714;28;20068;-79
2023/08/21 07:22:01;;;;;;;7.05;2.30;;;;;;;;;;4994362;28;20045;-78
2023/08/21 07:24:27;;;;;;;4.95;1.80;;;;;;;;;;4994274;28;20042;-78
2023/08/21 07:26:53;;;;;;;5.97;1.98;;;;;;;;;;5013479;28;20042;-79
2023/08/21 07:29:19;;;;;;;5.00;1.77;;;;;;;;;;4981893;28;20084;-79
2023/08/21 07:31:45;;;;;;;7.35;1.77;;;;;;;;;;5015621;28;20046;-79
2023/08/21 07:34:11;;;;;;;5.75;1.70;;;;;;;;;;4998207;28;20046;-78
2023/08/21 07:36:37;;;;;;;6.07;1.70;;;;;;;;;;4997617;28;20053;-78
2023/08/21 07:39:03;;;;;;;6.65;1.70;;;;;;;;;;4981799;28;20033;-78
2023/08/21 07:41:29;;;;;;;5.50;1.73;;;;;;;;;;4997796;28;20054;-79
2023/08/21 07:43:55;;;;;;;4.57;1.60;;;;;;;;;;4997732;28;20053;-79
2023/08/21 07:46:22;;;;;;;4.95;1.70;;;;;;;;;;4997796;28;20049;-79
2023/08/21 07:48:50;;;;;;;7.35;1.83;;;;;;;;;;4998169;28;20116;-79
2023/08/21 07:51:16;;;;;;;6.40;2.10;;;;;;;;;;4997826;28;20049;-79
2023/08/21 07:53:42;;;;;;;6.30;1.90;;;;;;;;;;5015167;28;20077;-78
2023/08/21 07:56:08;;;;;;;4.60;1.73;;;;;;;;;;5015395;28;20121;-79
2023/08/21 07:58:34;;;;;;;5.80;1.95;;;;;;;;;;5015095;28;20052;-78
2023/08/21 08:01:01;;;;;;;4.47;1.90;;;;;;;;;;5015201;28;20102;-79
2023/08/21 08:03:27;;;;;;;5.22;1.90;;;;;;;;;;5014914;28;20054;-78
2023/08/21 08:05:53;;;;;;;5.38;1.75;;;;;;;;;;5016204;28;20080;-79
2023/08/21 08:08:19;;;;;;;5.55;1.80;;;;;;;;;;5016907;28;20124;-79
2023/08/21 08:10:45;;;;;;;4.90;1.65;;;;;;;;;;5017137;28;20107;-78
2023/08/21 08:13:11;;;;;;;5.05;1.75;;;;;;;;;;5017145;28;20371;-77
2023/08/21 08:15:38;;;;;;;5.68;1.77;;;;;;;;;;5017276;28;20405;-78
2023/08/21 08:18:07;;;;;;;5.75;1.85;;;;;;;;;;5034433;28;20482;-79
2023/08/21 08:20:33;;;;;;;6.07;2.00;;;;;;;;;;5016959;28;20045;-78
2023/08/21 08:23:00;;;;;;;7.30;2.08;;;;;;;;;;5034333;28;20045;-78
2023/08/21 08:25:27;;;;;;;6.38;1.70;;;;;;;;;;5034444;28;20045;-79
2023/08/21 08:27:53;;;;;;;5.03;1.80;;;;;;;;;;5031412;28;20045;-78
2023/08/21 08:30:19;;;;;;;4.28;1.80;;;;;;;;;;5015741;28;20049;-78
2023/08/21 08:32:45;;;;;;;5.43;1.77;;;;;;;;;;5034406;28;20046;-78
2023/08/21 08:35:13;;;;;;;5.00;1.70;;;;;;;;;;5016807;28;20401;-78
2023/08/21 08:37:40;;;;;;;5.55;1.67;;;;;;;;;;5015985;28;20060;-79
2023/08/21 08:40:06;;;;;;;5.72;1.88;;;;;;;;;;5016607;28;20041;-77
2023/08/21 08:42:32;;;;;;;5.90;1.80;;;;;;;;;;5000212;28;20049;-78
2023/08/21 08:45:02;;;;;;;5.20;1.58;;;;;;;;;;5033861;28;20128;-79
2023/08/21 08:47:29;;;;;;;4.93;1.70;;;;;;;;;;5016211;28;20042;-79
2023/08/21 08:49:56;;;;;;;6.70;2.00;;;;;;;;;;5016061;28;20717;-79
2023/08/21 08:52:23;;;;;;;5.07;1.95;;;;;;;;;;5016262;28;20041;-79
2023/08/21 08:54:49;;;;;;;4.55;1.60;;;;;;;;;;5034304;28;20068;-78
2023/08/21 08:57:15;;;;;;;7.10;1.80;;;;;;;;;;5003387;28;20281;-78
2023/08/21 08:59:41;;;;;;;4.03;1.50;;;;;;;;;;5041454;28;20147;-77
2023/08/21 09:02:07;;;;;;;4.55;1.63;;;;;;;;;;5017319;28;20051;-79
2023/08/21 09:04:33;;;;;;;4.55;1.80;;;;;;;;;;5007845;28;20495;-78
2023/08/21 09:07:06;;;;;;;5.30;1.52;;;;;;;;;;5014032;28;20123;-76
2023/08/21 09:09:45;;;;;;;5.50;1.70;;;;;;;;;;5013548;28;20314;-80
2023/08/21 09:12:12;;;;;;;5.38;1.60;;;;;;;;;;4995346;28;20154;-79
2023/08/21 09:14:39;;;;;;;6.18;2.03;;;;;;;;;;5005546;28;20049;-78
2023/08/21 09:17:05;;;;;;;4.53;1.50;;;;;;;;;;5032191;28;20049;-78
2023/08/21 09:19:32;;;;;;;5.70;1.70;;;;;;;;;;5033691;28;20441;-78
2023/08/21 09:21:58;;;;;;;5.03;1.63;;;;;;;;;;5033111;28;20037;-78
2023/08/21 09:24:24;;;;;;;5.35;1.48;;;;;;;;;;5033201;28;20041;-78
2023/08/21 09:26:51;;;;;;;3.92;1.65;;;;;;;;;;5030291;28;20072;-78
2023/08/21 09:29:17;;;;;;;4.32;1.70;;;;;;;;;;5032519;28;20047;-78
2023/08/21 09:31:45;;;;;;;4.45;1.70;;;;;;;;;;5033777;28;20099;-78
2023/08/21 09:34:12;;;;;;;4.63;1.50;;;;;;;;;;5015454;28;20128;-78
2023/08/21 09:36:41;;;;;;;4.90;1.60;;;;;;;;;;5016076;28;20045;-78
2023/08/21 09:39:16;;;;;;;3.28;1.60;;;;;;;;;;5015865;28;20072;-78
2023/08/21 09:41:42;;;;;;;5.78;1.50;;;;;;;;;;5015675;28;20486;-78
2023/08/21 09:44:08;;;;;;;4.67;1.53;;;;;;;;;;5015611;28;20440;-79
2023/08/21 09:46:34;;;;;;;4.32;1.65;;;;;;;;;;5031890;28;20165;-80
2023/08/21 09:49:02;;;;;;;3.75;1.40;;;;;;;;;;5032435;28;20049;-78
2023/08/21 09:51:29;;;;;;;3.70;1.38;;;;;;;;;;5015346;28;20076;-79
2023/08/21 09:53:56;;;;;;;3.88;1.30;;;;;;;;;;5015080;28;20056;-79
2023/08/21 09:56:23;;;;;;;3.42;1.30;;;;;;;;;;5033315;28;20045;-79
2023/08/21 09:58:49;;;;;;;4.22;1.60;;;;;;;;;;5015327;28;20045;-79
2023/08/21 10:01:16;;;;;;;5.45;1.50;;;;;;;;;;5033361;28;20087;-79
2023/08/21 10:03:47;;;;;;;4.38;1.42;;;;;;;;;;5032863;28;20128;-78
2023/08/21 10:06:17;;;;;;;8.32;1.45;;;;;;;;;;5016048;28;20041;-79
2023/08/21 10:08:45;;;;;;;3.75;1.33;;;;;;;;;;5016064;28;20044;-78
2023/08/21 10:11:12;;;;;;;4.15;1.40;;;;;;;;;;5015502;28;20113;-78
2023/08/21 10:13:39;;;;;;;5.60;1.58;;;;;;;;;;5033250;28;20496;-79
2023/08/21 10:16:05;;;;;;;3.47;1.30;;;;;;;;;;4999806;28;20045;-79
2023/08/21 10:18:33;;;;;;;3.45;1.30;;;;;;;;;;5015331;28;20060;-78
2023/08/21 10:21:15;;;;;;;3.53;1.40;;;;;;;;;;5033341;28;20048;-79
2023/08/21 10:23:42;;;;;;;4.53;1.58;;;;;;;;;;5032331;28;20064;-79
2023/08/21 10:26:10;;;;;;;4.05;1.10;;;;;;;;;;5032957;28;20103;-79
2023/08/21 10:28:49;;;;;;;3.78;1.35;;;;;;;;;;5032386;28;20107;-79
2023/08/21 10:31:34;;;;;;;3.95;1.40;;;;;;;;;;5012872;28;20462;-79
2023/08/21 10:34:02;;;;;;;4.07;1.30;;;;;;;;;;5032378;28;20045;-78
2023/08/21 10:37:00;;;;;;;3.35;1.30;;;;;;;;;;5015190;28;20077;-80
2023/08/21 10:39:27;;;;;;;3.75;1.48;;;;;;;;;;5033367;28;20049;-79
2023/08/21 10:42:09;;;;;;;3.15;1.27;;;;;;;;;;5032414;28;20108;-79
2023/08/21 10:47:40;;;;;;;3.37;1.33;;;;;;;;;;5019100;28;20394;-79
2023/08/21 10:50:07;;;;;;;4.35;1.67;;;;;;;;;;5014808;28;20450;-78
2023/08/21 10:52:36;;;;;;;4.00;1.38;;;;;;;;;;5031496;28;20508;-78
2023/08/21 10:55:03;;;;;;;3.45;1.52;;;;;;;;;;5031949;28;20045;-79
2023/08/21 10:57:33;;;;;;;4.00;1.40;;;;;;;;;;4998878;28;20500;-79
2023/08/21 11:00:11;;;;;;;4.72;1.55;;;;;;;;;;5014555;28;20102;-79
2023/08/21 11:02:38;;;;;;;2.67;1.20;;;;;;;;;;5037539;28;20045;-80
2023/08/21 11:05:04;;;;;;;4.38;1.30;;;;;;;;;;4989018;28;20057;-80
2023/08/21 11:07:31;;;;;;;4.13;1.40;;;;;;;;;;4978881;28;20388;-79
2023/08/21 11:09:57;;;;;;;3.78;1.45;;;;;;;;;;5002760;28;20128;-79
2023/08/21 11:12:24;;;;;;;4.57;1.50;;;;;;;;;;4998564;28;20045;-79
2023/08/21 11:14:51;;;;;;;3.92;1.42;;;;;;;;;;5015780;28;20204;-79
2023/08/21 11:17:20;;;;;;;2.88;1.40;;;;;;;;;;4998602;28;20053;-79
2023/08/21 11:19:48;;;;;;;3.83;1.30;;;;;;;;;;5016308;28;20046;-79
2023/08/21 11:22:14;;;;;;;3.25;1.33;;;;;;;;;;5016143;28;20455;-79
2023/08/21 11:24:40;;;;;;;4.38;1.50;;;;;;;;;;4998205;28;20485;-80
2023/08/21 11:27:10;;;;;;;4.70;1.50;;;;;;;;;;4981694;28;20057;-79
2023/08/21 11:29:38;;;;;;;4.55;1.45;;;;;;;;;;4998015;28;20057;-79
2023/08/21 11:32:04;;;;;;;4.80;1.52;;;;;;;;;;4997934;28;20103;-79
2023/08/21 11:34:32;;;;;;;3.60;1.40;;;;;;;;;;5015738;28;20088;-79
2023/08/21 11:36:59;;;;;;;4.05;1.50;;;;;;;;;;5015485;28;20075;-79
2023/08/21 11:39:29;;;;;;;5.80;1.55;;;;;;;;;;4998188;28;20124;-80
2023/08/21 11:41:59;;;;;;;3.72;1.75;;;;;;;;;;4981282;28;20076;-79
2023/08/21 11:44:25;;;;;;;4.50;1.77;;;;;;;;;;5015331;28;20041;-79
2023/08/21 11:46:53;;;;;;;5.25;1.55;;;;;;;;;;5015442;28;20060;-79
2023/08/21 11:49:22;;;;;;;4.93;1.50;;;;;;;;;;5015629;28;20057;-79
2023/08/21 11:51:48;;;;;;;4.45;1.50;;;;;;;;;;5015213;28;20052;-80
2023/08/21 11:54:14;;;;;;;4.55;1.63;;;;;;;;;;5015165;28;20125;-79
2023/08/21 11:56:43;;;;;;;5.60;1.40;;;;;;;;;;4981456;28;20061;-79
2023/08/21 11:59:09;;;;;;;5.40;1.50;;;;;;;;;;5015282;28;20088;-79
2023/08/21 12:01:35;;;;;;;4.82;1.70;;;;;;;;;;5015386;28;20057;-79
2023/08/21 12:04:01;;;;;;;4.35;1.60;;;;;;;;;;4993573;28;20118;-79
2023/08/21 12:06:32;;;;;;;4.60;1.63;;;;;;;;;;4978132;28;20042;-79
2023/08/21 12:08:58;;;;;;;3.60;1.40;;;;;;;;;;4995685;28;20450;-79
2023/08/21 12:11:24;;;;;;;6.55;1.75;;;;;;;;;;5015052;28;20232;-78
2023/08/21 12:13:51;;;;;;;6.03;1.40;;;;;;;;;;5013877;28;20046;-78
2023/08/21 12:16:17;;;;;;;5.90;1.60;;;;;;;;;;5014866;28;20050;-78
2023/08/21 12:18:43;;;;;;;7.30;1.73;;;;;;;;;;5014632;28;20042;-78
2023/08/21 12:21:09;;;;;;;6.80;1.67;;;;;;;;;;5014820;28;20482;-79
2023/08/21 12:23:36;;;;;;;5.25;2.00;;;;;;;;;;5014426;28;20053;-79
2023/08/21 12:26:02;;;;;;;5.28;1.52;;;;;;;;;;4996721;28;20046;-78
2023/08/21 12:28:28;;;;;;;6.20;1.70;;;;;;;;;;5014415;28;20045;-80
2023/08/21 12:30:54;;;;;;;4.60;1.90;;;;;;;;;;5014487;28;20081;-79
2023/08/21 12:33:20;;;;;;;4.03;1.50;;;;;;;;;;5014361;28;20038;-78
2023/08/21 12:35:46;;;;;;;4.72;1.67;;;;;;;;;;4996639;28;20061;-78
2023/08/21 12:38:12;;;;;;;7.32;2.00;;;;;;;;;;4996850;28;20125;-79
2023/08/21 12:40:39;;;;;;;6.00;1.90;;;;;;;;;;4997353;28;20049;-79
2023/08/21 12:43:05;;;;;;;5.05;1.80;;;;;;;;;;5014352;28;20176;-78
2023/08/21 12:45:31;;;;;;;6.47;1.83;;;;;;;;;;5011619;28;20068;-79
2023/08/21 12:47:57;;;;;;;4.28;1.65;;;;;;;;;;4979305;28;20077;-80
2023/08/21 12:50:23;;;;;;;4.10;1.75;;;;;;;;;;5014528;28;20104;-79
2023/08/21 12:52:49;;;;;;;6.30;1.67;;;;;;;;;;5015120;28;20046;-79
2023/08/21 12:55:15;;;;;;;5.55;1.83;;;;;;;;;;5001724;28;20092;-76
2023/08/21 12:57:41;;;;;;;5.57;1.80;;;;;;;;;;5021250;28;20042;-78
2023/08/21 13:00:08;;;;;;;5.80;1.90;;;;;;;;;;5018982;28;20096;-78
2023/08/21 13:02:34;;;;;;;6.18;1.98;;;;;;;;;;4980820;28;20042;-77
2023/08/21 13:05:00;;;;;;;5.25;1.70;;;;;;;;;;5022153;28;20060;-79
2023/08/21 13:07:27;;;;;;;4.63;1.80;;;;;;;;;;5014245;28;20487;-79
2023/08/21 13:09:59;;;;;;;5.57;1.55;;;;;;;;;;5021287;28;20133;-79
2023/08/21 13:12:25;;;;;;;4.80;1.60;;;;;;;;;;5016295;28;20486;-79
2023/08/21 13:14:51;;;;;;;5.55;1.60;;;;;;;;;;5033578;28;20041;-79
2023/08/21 13:17:17;;;;;;;5.32;1.65;;;;;;;;;;5015697;28;20501;-79
2023/08/21 13:19:43;;;;;;;7.18;1.80;;;;;;;;;;5033951;28;20124;-78
2023/08/21 13:22:09;;;;;;;3.83;1.42;;;;;;;;;;5015896;28;20542;-79
2023/08/21 13:24:35;;;;;;;4.95;1.48;;;;;;;;;;5015030;28;20124;-79
2023/08/21 13:27:01;;;;;;;3.60;1.30;;;;;;;;;;5033276;28;20041;-79
2023/08/21 13:29:27;;;;;;;4.50;1.40;;;;;;;;;;5033538;28;20041;-79
2023/08/21 13:31:53;;;;;;;5.38;1.45;;;;;;;;;;5015977;28;20137;-79
2023/08/21 13:34:19;;;;;;;8.73;1.50;;;;;;;;;;5033515;28;20077;-79
2023/08/21 13:36:45;;;;;;;6.63;1.45;;;;;;;;;;5033542;28;20524;-80
2023/08/21 13:39:14;;;;;;;5.72;1.48;;;;;;;;;;5033568;28;20084;-80
2023/08/21 13:41:41;;;;;;;4.63;1.23;;;;;;;;;;5033500;28;20049;-80
2023/08/21 13:44:07;;;;;;;3.92;1.25;;;;;;;;;;5032075;28;20041;-80
2023/08/21 13:46:36;;;;;;;3.38;1.35;;;;;;;;;;5015873;28;20132;-80
2023/08/21 13:49:02;;;;;;;5.15;1.48;;;;;;;;;;5033144;28;20041;-79
2023/08/21 13:51:28;;;;;;;5.00;1.67;;;;;;;;;;5033116;28;20045;-79
2023/08/21 13:53:55;;;;;;;2.75;1.13;;;;;;;;;;5032585;28;20041;-78
2023/08/21 13:56:21;;;;;;;4.85;1.50;;;;;;;;;;5031461;28;20052;-78
2023/08/21 13:58:47;;;;;;;5.88;1.52;;;;;;;;;;5014545;28;20041;-79
2023/08/21 14:01:13;;;;;;;3.53;1.17;;;;;;;;;;5015194;28;20056;-79
2023/08/21 14:03:39;;;;;;;3.45;1.10;;;;;;;;;;5031367;28;20494;-79
2023/08/21 14:06:05;;;;;;;4.22;1.17;;;;;;;;;;4995069;28;20053;-79
2023/08/21 14:08:31;;;;;;;4.88;1.08;;;;;;;;;;5012953;28;20093;-79
2023/08/21 14:10:57;;;;;;;3.85;1.10;;;;;;;;;;5012822;28;20494;-79
2023/08/21 14:13:23;;;;;;;3.55;1.20;;;;;;;;;;4976702;28;20084;-79
2023/08/21 14:15:49;;;;;;;3.67;1.15;;;;;;;;;;5012989;28;20069;-80
2023/08/21 14:18:15;;;;;;;7.40;1.60;;;;;;;;;;5012980;28;20073;-79
2023/08/21 14:20:41;;;;;;;4.38;1.30;;;;;;;;;;5003073;28;20053;-79
2023/08/21 14:23:07;;;;;;;4.13;1.23;;;;;;;;;;4995040;28;20050;-79
2023/08/21 14:25:33;;;;;;;3.50;1.27;;;;;;;;;;5012762;28;20045;-79
2023/08/21 14:28:00;;;;;;;3.83;1.30;;;;;;;;;;4994970;28;20390;-79
2023/08/21 14:30:26;;;;;;;3.97;1.30;;;;;;;;;;5012784;28;20050;-79
2023/08/21 14:32:52;;;;;;;3.28;0.98;;;;;;;;;;5012731;28;20394;-79
2023/08/21 14:35:18;;;;;;;3.75;1.08;;;;;;;;;;5012809;28;20057;-79
2023/08/21 14:37:44;;;;;;;3.55;1.00;;;;;;;;;;5016740;28;20049;-79
2023/08/21 14:40:10;;;;;;;4.35;1.40;;;;;;;;;;4999013;28;20045;-79